Terminal Aerodrome Forecast
Issued by NWS Cleveland, OH

Home | Current Version | Previous Version | Text Only | Print | Product List | Glossary On
Versions: 1 2 3 4 5 6 7 8 9 10 11 12 13 14 15 16 17 18 19 20 21 22 23
000
FTUS41 KCLE 050338 AAA
TAFMFD
TAF AMD
KMFD 050338Z 0504/0524 27006KT P6SM SCT008 BKN015 OVC025
      TEMPO 0508/0512 5SM -SHRA BKN008
     FM051300 35010KT 5SM BR SCT006 OVC012
     FM051800 01014G22KT P6SM SCT012 OVC025=

USA.gov is the U.S. government's official web portal to all federal, state and local government web resources and services.